Hlavní strana
METAR-TAF:

METAR-TAF

Letiště :

Swift Current, Saskatchewan, Kanada

zeměpisná šířka: 50-17N, zeměpisná délka: 107-41W, výška: 818 m

Aktuální stav počasí

Zpráva byla vytvořena před 34 minutami, v 02:00 UTC
Západojihozápadní vítr 14 kt s nárazy do 19 kt
Teplota 3°C
Vlhkost vzduchu 65%
Tlak 1015 hPa
Viditelnost: 14.5 km
Jasno

METAR: CYYN 140200Z AUTO 24014G19KT 9SM CLR 03/M03 A2997 RMK SLP182

Čas: 20:34 (02:34 UTC)

Předpověď počasí

Zpráva byla vytvořena před 2 hodinami a 55 minutami, v 23:39 UTC
Předpověď platná od 14 v 00 UTC do 14 v 12 UTC
Jihozápadní vítr 12 kt
Viditelnost: 10 km
Jasno
Od 14 v 0300 UTC
Západojihozápadní vítr 15 kt
Viditelnost: 10 km
Polojasno ve výšce 25000 ft
Od 14 v 1000 UTC
Západojihozápadní vítr 18 kt
Viditelnost: 10 km
Skoro jasno ve výšce 15000 ft
Oblačno až skoro zataženo ve výšce 25000 ft

TAF: CYYN 132339Z 1400/1412 23012KT P6SM SKC FM140300 25015KT P6SM SCT250 FM141000 24018KT WS005/26040KT P6SM FEW150 BKN250 RMK FCST BASED ON AUTO OBS. NXT FCST BY 140600Z

Stav a předpovědi počasí z více než 4 000 letišť (zprávy METAR a TAF).

Červené a žluté tečky na mapě představují dostupné meteorologické stanice.

Když kurzor umístíte na tečku, zobrazí se název stanice.

Pak kliknutím zobrazíte stav a předpověď počasí.

Chcete-li změnit mapu, kliknutím na zelené tlačítko se znaménkem +mapu přiblížíte, kliknutím na zelené tlačítko se znaménkem – mapu oddálíte a kliknutím na zelené šipky přejdete na sousední mapy.


METAR-TAF: